East Harwich, Massachusetts
Current Conditions -  °F | °C
As of 12:07 PM on Friday 19 Dec 2014 (Local Time) from KCQX Reporting Station
Overcast Overcast  
Wind Chill: 31°   Ceiling: 3600
Heat Index: 37°   Visibility: 10mi
Dew Point: 26°   Wind: 8mph
Humidity: 65%   Direction: 320°NW
Pressure: 29.93"   Gusts: NA
Location:  41.7026°N, 70.0637°W
Report Text: KCQX 191707Z AUTO 32007KT 280V360 10SM FEW028 BKN036 OVC043 03/M03 A2993 RMK AO2 T00281033
Loading
Personal Weather Stations






























Interactive Weather Map New forecast layout! Learn more

10-Day Weather Forecast

Advertisements
Track Severe Weather on mobile